French Lick, IN

8:45 AM EST on March 06, 2015 (GMT -0500)
Babcock Addition | Change Station
CLOSE
Current Station
Personal Weather Station
Location: Paoli, IN
Elevation: 679 ft
Nearby Weather Stations

Elev 679 ft 38.57 °N, 86.47 °W | Updated 10 minutes ago

Partly Cloudy
Partly Cloudy
1.4 °F
Feels Like 1 °F
N
0.0
Wind Variable Wind from NW
Gusts 0.0 mph

Today
High -- | Low -- °F
--% Chance of Precip.
Yesterday
High -- | Low -- °F
Precip. -- in
7:11 AM 6:44 PM
Waxing Gibbous, 99% visible
Pressure 30.58 in
Visibility 5.0 miles
Clouds Clear
Windchill 1 °F
Dew Point -1 °F
Humidity 89%
Rainfall in
Snow Depth Not available.
UV 1 out of 12
Pollen 3.00 out of 12
Air Quality Not available.
Flu Activity Not available.
METAR KHNB 061335Z AUTO 00000KT 5SM CLR M17/M19 A3058 RMK AO1

More Conditions Fewer Conditions

Pressure 30.58 in
Visibility 5.0 miles
Clouds Clear
Windchill 1 °F
Dew Point -1 °F
Humidity 89%
Rainfall in
Snow Depth Not available.
UV 1 out of 12
Pollen 3.00 out of 12
Air Quality Not available.
Flu Activity Not available.
METAR KHNB 061335Z AUTO 00000KT 5SM CLR M17/M19 A3058 RMK AO1

More Conditions Fewer Conditions

10-Day Weather Forecast

Almanac

Astronomy

Mar. 06, 2015 Rise Set
Actual Time
Civil Twilight
Nautical Twilight
Astronomical Twilight
Moon
Length of Visible Light
Length of Day
Tomorrow will be .
, % of the Moon is Illuminated

Today's Extremes

State Highs State Lows

Community

WunderPhotos

Upload Photos

1,803,266 photos uploaded!

WunderBlogs® & News

Nearby

Air Quality

  Air Quality AQ Index Pollutant
Not available.

Snow Depth

Station Depth Elevation

Earthquake Activity

City Distance Mag. Time & Date
Minimum magnitude displayed is 2.5.

Coastal Water Temperatures

Place Temperature

Nearby Weather Stations